(°C)
21°
21°
20°
20°
20°
20°
20°
(°C)
18°
17°
17°
16°
16°
15°
16°
SSW
SSW
SSW
SSW
SSW
SSW
SSW
(km/h)
20-38
21-41
22-45
25-49
28-54
30-57
29-58
(mm)
0
0
0
0
0.2
0.4
0.8
(%)
30
30
30
44
68
84
81

Elevazione del sole

/ -8.3°
sun-icon
UV 7
05:10
20:20
Luna crescente (71°)
11:21
24:00

METAR per Barnstable (KHYA)

Ora Condizioni Temperatura/
Punto di rugiada
Vento Visibilità Meteo Nuvole Pressione Cambiamento Grezzo
VFR 22.2°C / 16.7°C 200º 10kt Gust 16kt >10km - Overcast 11000ft 1013 - KHYA 052356Z 20010G16KT 10SM OVC110 22/17 A2994 RMK AO2 SLP139 60000 T02220167 10239 20222 56017
VFR 22.2°C / 16.7°C 200º 8kt >10km - Overcast 11000ft 1014 - KHYA 052256Z 20008KT 10SM OVC110 22/17 A2995 RMK AO2 SLP144 T02220167
VFR 22.2°C / 17.2°C 200º 7kt >10km - Overcast 10000ft 1014 - KHYA 052156Z 20007KT 10SM OVC100 22/17 A2997 RMK AO2 SLP148 T02220172
VFR 22.2°C / 18.3°C 190º 7kt >10km 0.13mm precipitation Few Clouds 11000ft 1015 - KHYA 052056Z 19007KT 10SM FEW110 22/18 A2999 RMK AO2 RAB32E51 SLP157 P0000 60000 T02220183 58012
VFR 23.3°C / 17.2°C 210º 10kt >10km - Few Clouds 9000ft
Scattered Clouds 10000ft
1016 - KHYA 051956Z 21010KT 10SM FEW090 SCT100 23/17 A3000 RMK AO2 SLP160 T02330172
VFR 23.3°C / 17.8°C 210º 7kt >10km - Overcast 9000ft 1016 - KHYA 051856Z 21007KT 10SM OVC090 23/18 A3002 RMK AO2 SLP166 T02330178
VFR 23.3°C / 18.3°C 210º 10kt >10km - Overcast 8000ft 1016 - KHYA 051756Z 21010KT 10SM OVC080 23/18 A3003 RMK AO2 SLP168 T02330183 10239 20222 58015
VFR 23.3°C / 17.8°C 210º 9kt >10km - Overcast 8000ft 1017 - KHYA 051656Z 21009KT 10SM OVC080 23/18 A3004 RMK AO2 SLP174 T02330178
VFR 22.8°C / 17.8°C 210º 9kt >10km - Overcast 7500ft 1018 - KHYA 051556Z 21009KT 10SM OVC075 23/18 A3006 RMK AO2 SLP180 T02280178
VFR 22.8°C / 17.8°C 230º 12kt >10km - Overcast 8000ft 1018 - KHYA 051456Z 23012KT 10SM OVC080 23/18 A3007 RMK AO2 SLP183 T02280178 56007
VFR 22.2°C / 17.8°C 220º 10kt >10km - Overcast 7500ft 1018 - KHYA 051356Z 22010KT 10SM OVC075 22/18 A3007 RMK AO2 SLP184 T02220178
VFR 23.3°C / 17.2°C 200º 6kt >10km - Overcast 9000ft 1018 - KHYA 051256Z 20006KT 10SM OVC090 23/17 A3008 RMK AO2 SLP187 T02330172
VFR 22.8°C / 16.7°C 230º 10kt >10km - Broken Clouds 10000ft 1019 - KHYA 051156Z 23010KT 10SM BKN100 23/17 A3009 RMK AO2 SLP190 T02280167 10228 20178 53005
VFR 20.6°C / 16.1°C 250º 6kt >10km - Clear 1018 - KHYA 051056Z 25006KT 10SM CLR 21/16 A3008 RMK AO2 SLP188 T02060161
VFR 18.9°C / 16.1°C variable 0kt >10km - Clear 1018 - KHYA 050956Z 00000KT 10SM CLR 19/16 A3008 RMK AO2 SLP187 T01890161
VFR 18.3°C / 15.6°C 220º 5kt >10km - Clear 1018 - KHYA 050856Z AUTO 22005KT 10SM CLR 18/16 A3008 RMK AO2 SLP185 T01830156 56003
VFR 18.3°C / 15°C 250º 5kt >10km - Clear 1018 - KHYA 050756Z AUTO 25005KT 10SM CLR 18/15 A3008 RMK AO2 SLP185 T01830150
VFR 19.4°C / 15°C 250º 6kt >10km - Clear 1018 - KHYA 050656Z AUTO 25006KT 10SM CLR 19/15 A3007 RMK AO2 SLP184 T01940150
VFR 19.4°C / 13.9°C 240º 6kt >10km - Clear 1018 - KHYA 050556Z AUTO 24006KT 10SM CLR 19/14 A3008 RMK AO2 SLP188 T01940139 10228 20194 56005
VFR 20°C / 13.9°C 250º 6kt >10km - Clear 1018 - KHYA 050456Z AUTO 25006KT 10SM CLR 20/14 A3009 RMK AO2 SLP189 T02000139 402720189
VFR 21.1°C / 12.8°C 250º 8kt >10km - Clear 1019 - KHYA 050356Z AUTO 25008KT 10SM CLR 21/13 A3009 RMK AO2 SLP190 T02110128
VFR 22.2°C / 12.2°C 250º 8kt >10km - Clear 1019 - KHYA 050256Z AUTO 25008KT 10SM CLR 22/12 A3010 RMK AO2 SLP192 T02220122 51011
VFR 21.7°C / 11.7°C 250º 10kt >10km - Clear 1019 - KHYA 050156Z 25010KT 10SM CLR 22/12 A3009 RMK AO2 SLP191 T02170117
VFR 21.1°C / 12.2°C 230º 7kt >10km - Clear 1018 - KHYA 050056Z 23007KT 10SM CLR 21/12 A3007 RMK AO2 SLP184 T02110122

VFR

22.2°C / 16.7°C

[Più]
Vento 200º 10kt Gust 16kt
Visibilità >10km
Meteo -
Nuvole Overcast 11000ft
Pressione 1013
Cambiamento -
Grezzo KHYA 052356Z 20010G16KT 10SM OVC110 22/17 A2994 RMK AO2 SLP139 60000 T02220167 10239 20222 56017

VFR

22.2°C / 16.7°C

[Più]
Vento 200º 8kt
Visibilità >10km
Meteo -
Nuvole Overcast 11000ft
Pressione 1014
Cambiamento -
Grezzo KHYA 052256Z 20008KT 10SM OVC110 22/17 A2995 RMK AO2 SLP144 T02220167

VFR

22.2°C / 17.2°C

[Più]
Vento 200º 7kt
Visibilità >10km
Meteo -
Nuvole Overcast 10000ft
Pressione 1014
Cambiamento -
Grezzo KHYA 052156Z 20007KT 10SM OVC100 22/17 A2997 RMK AO2 SLP148 T02220172

VFR

22.2°C / 18.3°C

[Più]
Vento 190º 7kt
Visibilità >10km
Meteo 0.13mm precipitation
Nuvole Few Clouds 11000ft
Pressione 1015
Cambiamento -
Grezzo KHYA 052056Z 19007KT 10SM FEW110 22/18 A2999 RMK AO2 RAB32E51 SLP157 P0000 60000 T02220183 58012

VFR

23.3°C / 17.2°C

[Più]
Vento 210º 10kt
Visibilità >10km
Meteo -
Nuvole Few Clouds 9000ft
Scattered Clouds 10000ft
Pressione 1016
Cambiamento -
Grezzo KHYA 051956Z 21010KT 10SM FEW090 SCT100 23/17 A3000 RMK AO2 SLP160 T02330172

VFR

23.3°C / 17.8°C

[Più]
Vento 210º 7kt
Visibilità >10km
Meteo -
Nuvole Overcast 9000ft
Pressione 1016
Cambiamento -
Grezzo KHYA 051856Z 21007KT 10SM OVC090 23/18 A3002 RMK AO2 SLP166 T02330178

VFR

23.3°C / 18.3°C

[Più]
Vento 210º 10kt
Visibilità >10km
Meteo -
Nuvole Overcast 8000ft
Pressione 1016
Cambiamento -
Grezzo KHYA 051756Z 21010KT 10SM OVC080 23/18 A3003 RMK AO2 SLP168 T02330183 10239 20222 58015

VFR

23.3°C / 17.8°C

[Più]
Vento 210º 9kt
Visibilità >10km
Meteo -
Nuvole Overcast 8000ft
Pressione 1017
Cambiamento -
Grezzo KHYA 051656Z 21009KT 10SM OVC080 23/18 A3004 RMK AO2 SLP174 T02330178

VFR

22.8°C / 17.8°C

[Più]
Vento 210º 9kt
Visibilità >10km
Meteo -
Nuvole Overcast 7500ft
Pressione 1018
Cambiamento -
Grezzo KHYA 051556Z 21009KT 10SM OVC075 23/18 A3006 RMK AO2 SLP180 T02280178

VFR

22.8°C / 17.8°C

[Più]
Vento 230º 12kt
Visibilità >10km
Meteo -
Nuvole Overcast 8000ft
Pressione 1018
Cambiamento -
Grezzo KHYA 051456Z 23012KT 10SM OVC080 23/18 A3007 RMK AO2 SLP183 T02280178 56007

VFR

22.2°C / 17.8°C

[Più]
Vento 220º 10kt
Visibilità >10km
Meteo -
Nuvole Overcast 7500ft
Pressione 1018
Cambiamento -
Grezzo KHYA 051356Z 22010KT 10SM OVC075 22/18 A3007 RMK AO2 SLP184 T02220178

VFR

23.3°C / 17.2°C

[Più]
Vento 200º 6kt
Visibilità >10km
Meteo -
Nuvole Overcast 9000ft
Pressione 1018
Cambiamento -
Grezzo KHYA 051256Z 20006KT 10SM OVC090 23/17 A3008 RMK AO2 SLP187 T02330172

VFR

22.8°C / 16.7°C

[Più]
Vento 230º 10kt
Visibilità >10km
Meteo -
Nuvole Broken Clouds 10000ft
Pressione 1019
Cambiamento -
Grezzo KHYA 051156Z 23010KT 10SM BKN100 23/17 A3009 RMK AO2 SLP190 T02280167 10228 20178 53005

VFR

20.6°C / 16.1°C

[Più]
Vento 250º 6kt
Visibilità >10km
Meteo -
Nuvole Clear
Pressione 1018
Cambiamento -
Grezzo KHYA 051056Z 25006KT 10SM CLR 21/16 A3008 RMK AO2 SLP188 T02060161

VFR

18.9°C / 16.1°C

[Più]
Vento variable 0kt
Visibilità >10km
Meteo -
Nuvole Clear
Pressione 1018
Cambiamento -
Grezzo KHYA 050956Z 00000KT 10SM CLR 19/16 A3008 RMK AO2 SLP187 T01890161

VFR

18.3°C / 15.6°C

[Più]
Vento 220º 5kt
Visibilità >10km
Meteo -
Nuvole Clear
Pressione 1018
Cambiamento -
Grezzo KHYA 050856Z AUTO 22005KT 10SM CLR 18/16 A3008 RMK AO2 SLP185 T01830156 56003

VFR

18.3°C / 15°C

[Più]
Vento 250º 5kt
Visibilità >10km
Meteo -
Nuvole Clear
Pressione 1018
Cambiamento -
Grezzo KHYA 050756Z AUTO 25005KT 10SM CLR 18/15 A3008 RMK AO2 SLP185 T01830150

VFR

19.4°C / 15°C

[Più]
Vento 250º 6kt
Visibilità >10km
Meteo -
Nuvole Clear
Pressione 1018
Cambiamento -
Grezzo KHYA 050656Z AUTO 25006KT 10SM CLR 19/15 A3007 RMK AO2 SLP184 T01940150

VFR

19.4°C / 13.9°C

[Più]
Vento 240º 6kt
Visibilità >10km
Meteo -
Nuvole Clear
Pressione 1018
Cambiamento -
Grezzo KHYA 050556Z AUTO 24006KT 10SM CLR 19/14 A3008 RMK AO2 SLP188 T01940139 10228 20194 56005

VFR

20°C / 13.9°C

[Più]
Vento 250º 6kt
Visibilità >10km
Meteo -
Nuvole Clear
Pressione 1018
Cambiamento -
Grezzo KHYA 050456Z AUTO 25006KT 10SM CLR 20/14 A3009 RMK AO2 SLP189 T02000139 402720189

VFR

21.1°C / 12.8°C

[Più]
Vento 250º 8kt
Visibilità >10km
Meteo -
Nuvole Clear
Pressione 1019
Cambiamento -
Grezzo KHYA 050356Z AUTO 25008KT 10SM CLR 21/13 A3009 RMK AO2 SLP190 T02110128

VFR

22.2°C / 12.2°C

[Più]
Vento 250º 8kt
Visibilità >10km
Meteo -
Nuvole Clear
Pressione 1019
Cambiamento -
Grezzo KHYA 050256Z AUTO 25008KT 10SM CLR 22/12 A3010 RMK AO2 SLP192 T02220122 51011

VFR

21.7°C / 11.7°C

[Più]
Vento 250º 10kt
Visibilità >10km
Meteo -
Nuvole Clear
Pressione 1019
Cambiamento -
Grezzo KHYA 050156Z 25010KT 10SM CLR 22/12 A3009 RMK AO2 SLP191 T02170117

VFR

21.1°C / 12.2°C

[Più]
Vento 230º 7kt
Visibilità >10km
Meteo -
Nuvole Clear
Pressione 1018
Cambiamento -
Grezzo KHYA 050056Z 23007KT 10SM CLR 21/12 A3007 RMK AO2 SLP184 T02110122

TAF per Barnstable (KHYA)

From till


From till Wind 200º 10kt. Gust 18kt. Visibility 10km or more. in the Vicinity Showers . Broken Clouds 9000ft.
From till Wind 200º 18kt. Gust 27kt. Visibility 10km or more. Light Showers Rain . Overcast 5000ft.
From till Wind 220º 17kt. Gust 27kt. Visibility 9700m. Mist in the Vicinity Showers . Overcast 1000ft.
From till Wind 280º 11kt. Gust 21kt. Visibility 9700m. Mist . Broken Clouds 2500ft.
From till Wind 340º 10kt. Gust 18kt. Visibility 10km or more. Broken Clouds 4000ft.

Grezzo: KHYA 052331Z 0600/0624 20010G18KT P6SM VCSH BKN090 FM060600 20018G27KT P6SM -SHRA OVC050 FM061000 22017G27KT 6SM BR VCSH OVC010 FM061400 28011G21KT 6SM BR BKN025 FM061700 34010G18KT P6SM BKN040

Radar e nowcasting per Barnstable

Pioviggine
Lieve
Moderato
Forte
Molto forte
Grandine

Il segnaposto è situato a Barnstable. Questa animazione mostra il radar delle precipitazioni per l'ultima ora, nonché una previsione 1h. Una pioviggine o una leggera caduta di neve potrebbero essere invisibili per il radar. L'intensità delle precipitazioni è codificata a colori, dal blu chiaro all'arancione.

Immagine satellitare per Barnstable, Stati Uniti

Il segnaposto è situato a Barnstable. [Più]

L'immagine satellitare in tempo reale combina la luce visibile durante il giorno con la radiazione infrarossa durante la notte. Di notte l'immagine non è scura poiché i raggi infrarossi possono rilevare differenze di temperatura. Purtroppo, le nuvole basse e la nebbia sono difficili da distinguere dalla temperatura del suolo e possono pertanto essere quasi invisibili durante la notte. Le immagini satellitari Meteosat per l'Europa vengono aggiornate in tempo reale ogni 5 minuti. Le immagini GOES-16 / GOES-17 (Nord e Sud America) e Himawari (Asia) vengono aggiornate ogni 10 minuti.

Tornare su